This is the latest recevied weather packets stored in our database for station/object W4TTU-1. If no packets are shown the sender has not sent any weather packets the latest 10 day(s).
| Time | Temp. | Humidity | Pressure | Rain* | Wind** | Luminosity | Snow |
|---|---|---|---|---|---|---|---|
| 1777698919 | 12.22° C | 25% | 849.6 hPa | 0 mm | - | - | - |
| 1777698019 | 13.33° C | 25% | 849.7 hPa | 0 mm | - | - | - |
| 1777697118 | 14.44° C | 25% | 849.7 hPa | 0 mm | - | - | - |
| 1777696217 | 15.56° C | 24% | 849.6 hPa | 0 mm | - | - | - |
| 1777695317 | 16.67° C | 25% | 849.5 hPa | 0 mm | - | - | - |
| 1777692615 | 21.11° C | 23% | 849.2 hPa | 0 mm | - | - | - |
| 1777691715 | 22.78° C | 23% | 849 hPa | 0 mm | - | - | - |
| 1777690814 | 24.44° C | 23% | 848.8 hPa | 0 mm | - | - | - |
| 1777689918 | 26.67° C | 24% | 848.5 hPa | 0 mm | - | - | - |
| 1777689014 | 28.33° C | 23% | 848.3 hPa | 0 mm | - | - | - |
| 1777688113 | 30° C | 24% | 848.1 hPa | 0 mm | - | - | - |
| 1777687212 | 31.67° C | 24% | 848.1 hPa | 0 mm | - | - | - |
| 1777686312 | 32.78° C | 25% | 847.9 hPa | 0 mm | - | - | - |
| 1777685411 | 33.33° C | 24% | 848 hPa | 0 mm | - | - | - |
| 1777684510 | 33.89° C | 24% | 847.9 hPa | 0 mm | - | - | - |
| 1777683610 | 35° C | 24% | 848 hPa | 0 mm | - | - | - |
| 1777682710 | 35.56° C | 24% | 848 hPa | 0 mm | - | - | - |
| 1777681809 | 36.11° C | 24% | 848 hPa | 0 mm | - | - | - |
| 1777680909 | 36.11° C | 24% | 848 hPa | 0 mm | - | - | - |
| 1777680008 | 36.67° C | 24% | 848 hPa | 0 mm | - | - | - |
| 1777679110 | 36.67° C | 24% | 848.1 hPa | 0 mm | - | - | - |
| 1777677306 | 37.22° C | 24% | 848.1 hPa | 0 mm | - | - | - |
| 1777676406 | 37.22° C | 24% | 848.1 hPa | 0 mm | - | - | - |
| 1777675505 | 37.22° C | 25% | 848.2 hPa | 0 mm | - | - | - |
| 1777674606 | 36.67° C | 25% | 848.3 hPa | 0 mm | - | - | - |
* Rain since midnight (hover to see other rain measurements)
** Current wind speed in m/s (hover to see current wind gust speed)